sensor_id;sensor_type;location;lat;lon;timestamp;P1;durP1;ratioP1;P2;durP2;ratioP2
4208;SDS011;36320;48.860;2.380;2023-05-10T00:00:26;7.50;;;1.30;;
4208;SDS011;36320;48.860;2.380;2023-05-10T00:02:52;8.60;;;1.00;;
4208;SDS011;36320;48.860;2.380;2023-05-10T00:05:18;6.10;;;1.00;;
4208;SDS011;36320;48.860;2.380;2023-05-10T00:07:43;10.98;;;1.40;;
4208;SDS011;36320;48.860;2.380;2023-05-10T00:10:10;8.25;;;1.30;;
4208;SDS011;36320;48.860;2.380;2023-05-10T00:12:36;10.20;;;1.50;;
4208;SDS011;36320;48.860;2.380;2023-05-10T00:15:02;8.60;;;1.00;;
4208;SDS011;36320;48.860;2.380;2023-05-10T00:17:28;11.20;;;1.50;;
4208;SDS011;36320;48.860;2.380;2023-05-10T00:19:55;9.40;;;1.60;;
4208;SDS011;36320;48.860;2.380;2023-05-10T00:22:21;6.43;;;0.95;;
4208;SDS011;36320;48.860;2.380;2023-05-10T00:24:47;6.87;;;1.10;;
4208;SDS011;36320;48.860;2.380;2023-05-10T00:27:14;7.10;;;1.50;;
4208;SDS011;36320;48.860;2.380;2023-05-10T00:29:40;6.33;;;0.97;;
4208;SDS011;36320;48.860;2.380;2023-05-10T00:32:05;8.00;;;1.10;;
4208;SDS011;36320;48.860;2.380;2023-05-10T00:34:31;5.80;;;0.87;;
4208;SDS011;36320;48.860;2.380;2023-05-10T00:36:57;8.48;;;1.10;;
4208;SDS011;36320;48.860;2.380;2023-05-10T00:39:23;8.33;;;1.00;;
4208;SDS011;36320;48.860;2.380;2023-05-10T00:41:48;6.40;;;1.00;;
4208;SDS011;36320;48.860;2.380;2023-05-10T00:44:14;8.07;;;1.17;;
4208;SDS011;36320;48.860;2.380;2023-05-10T00:46:40;7.68;;;1.20;;
4208;SDS011;36320;48.860;2.380;2023-05-10T00:49:06;7.75;;;1.00;;
4208;SDS011;36320;48.860;2.380;2023-05-10T00:51:32;9.80;;;1.10;;
4208;SDS011;36320;48.860;2.380;2023-05-10T00:53:58;8.13;;;1.05;;
4208;SDS011;36320;48.860;2.380;2023-05-10T00:56:25;6.60;;;1.10;;
4208;SDS011;36320;48.860;2.380;2023-05-10T00:58:53;5.88;;;0.88;;
4208;SDS011;36320;48.860;2.380;2023-05-10T01:01:20;6.47;;;1.52;;
4208;SDS011;36320;48.860;2.380;2023-05-10T01:03:46;6.50;;;1.00;;
4208;SDS011;36320;48.860;2.380;2023-05-10T01:06:12;6.40;;;1.00;;
4208;SDS011;36320;48.860;2.380;2023-05-10T01:08:38;6.93;;;1.00;;
4208;SDS011;36320;48.860;2.380;2023-05-10T01:11:04;8.10;;;1.00;;
4208;SDS011;36320;48.860;2.380;2023-05-10T01:13:31;6.00;;;1.00;;
4208;SDS011;36320;48.860;2.380;2023-05-10T01:16:00;5.97;;;0.90;;
4208;SDS011;36320;48.860;2.380;2023-05-10T01:18:29;7.80;;;1.60;;
4208;SDS011;36320;48.860;2.380;2023-05-10T01:30:20;6.30;;;1.10;;
4208;SDS011;36320;48.860;2.380;2023-05-10T01:35:47;5.95;;;1.00;;
4208;SDS011;36320;48.860;2.380;2023-05-10T01:41:14;5.88;;;0.93;;
4208;SDS011;36320;48.860;2.380;2023-05-10T01:44:11;5.80;;;1.00;;
4208;SDS011;36320;48.860;2.380;2023-05-10T01:46:49;6.60;;;1.27;;
4208;SDS011;36320;48.860;2.380;2023-05-10T01:49:26;7.00;;;0.90;;
4208;SDS011;36320;48.860;2.380;2023-05-10T01:51:59;5.60;;;0.80;;
4208;SDS011;36320;48.860;2.380;2023-05-10T01:54:31;5.70;;;0.90;;
4208;SDS011;36320;48.860;2.380;2023-05-10T01:56:59;6.00;;;1.00;;
4208;SDS011;36320;48.860;2.380;2023-05-10T01:59:34;6.30;;;1.10;;
4208;SDS011;36320;48.860;2.380;2023-05-10T02:02:01;6.00;;;1.00;;
4208;SDS011;36320;48.860;2.380;2023-05-10T02:04:31;9.65;;;1.10;;
4208;SDS011;36320;48.860;2.380;2023-05-10T02:06:58;7.10;;;0.90;;
4208;SDS011;36320;48.860;2.380;2023-05-10T02:09:24;11.23;;;1.08;;
4208;SDS011;36320;48.860;2.380;2023-05-10T02:11:52;6.50;;;1.20;;
4208;SDS011;36320;48.860;2.380;2023-05-10T02:14:19;8.40;;;1.00;;
4208;SDS011;36320;48.860;2.380;2023-05-10T02:16:47;7.00;;;1.10;;
4208;SDS011;36320;48.860;2.380;2023-05-10T02:19:15;5.60;;;0.80;;
4208;SDS011;36320;48.860;2.380;2023-05-10T02:21:43;7.60;;;1.02;;
4208;SDS011;36320;48.860;2.380;2023-05-10T02:24:11;7.82;;;1.08;;
4208;SDS011;36320;48.860;2.380;2023-05-10T02:26:38;8.50;;;1.00;;
4208;SDS011;36320;48.860;2.380;2023-05-10T02:29:05;6.20;;;0.90;;
4208;SDS011;36320;48.860;2.380;2023-05-10T02:31:32;6.03;;;0.90;;
4208;SDS011;36320;48.860;2.380;2023-05-10T02:34:00;6.47;;;1.00;;
4208;SDS011;36320;48.860;2.380;2023-05-10T02:36:27;6.00;;;1.00;;
4208;SDS011;36320;48.860;2.380;2023-05-10T02:38:54;6.10;;;1.00;;
4208;SDS011;36320;48.860;2.380;2023-05-10T02:41:21;6.40;;;0.90;;
4208;SDS011;36320;48.860;2.380;2023-05-10T02:43:50;6.70;;;1.00;;
4208;SDS011;36320;48.860;2.380;2023-05-10T02:46:17;13.23;;;1.30;;
4208;SDS011;36320;48.860;2.380;2023-05-10T02:48:43;6.63;;;1.00;;
4208;SDS011;36320;48.860;2.380;2023-05-10T02:51:09;5.60;;;0.80;;
4208;SDS011;36320;48.860;2.380;2023-05-10T02:53:42;7.55;;;1.00;;
4208;SDS011;36320;48.860;2.380;2023-05-10T02:56:14;6.50;;;1.00;;
4208;SDS011;36320;48.860;2.380;2023-05-10T02:58:50;6.00;;;0.90;;
4208;SDS011;36320;48.860;2.380;2023-05-10T03:01:16;6.90;;;0.95;;
4208;SDS011;36320;48.860;2.380;2023-05-10T03:03:42;5.85;;;0.90;;
4208;SDS011;36320;48.860;2.380;2023-05-10T03:06:08;6.23;;;1.17;;
4208;SDS011;36320;48.860;2.380;2023-05-10T03:08:35;6.03;;;1.07;;
4208;SDS011;36320;48.860;2.380;2023-05-10T03:16:29;5.70;;;0.82;;
4208;SDS011;36320;48.860;2.380;2023-05-10T03:19:15;5.78;;;0.88;;
4208;SDS011;36320;48.860;2.380;2023-05-10T03:21:47;6.90;;;0.90;;
4208;SDS011;36320;48.860;2.380;2023-05-10T03:24:17;6.50;;;1.30;;
4208;SDS011;36320;48.860;2.380;2023-05-10T03:26:46;5.82;;;0.90;;
4208;SDS011;36320;48.860;2.380;2023-05-10T03:29:12;5.70;;;0.80;;
4208;SDS011;36320;48.860;2.380;2023-05-10T03:31:40;5.70;;;0.90;;
4208;SDS011;36320;48.860;2.380;2023-05-10T03:34:06;5.70;;;0.90;;
4208;SDS011;36320;48.860;2.380;2023-05-10T03:36:32;6.90;;;1.10;;
4208;SDS011;36320;48.860;2.380;2023-05-10T03:38:58;5.83;;;0.90;;
4208;SDS011;36320;48.860;2.380;2023-05-10T03:41:24;6.10;;;0.90;;
4208;SDS011;36320;48.860;2.380;2023-05-10T03:43:51;6.60;;;1.00;;
4208;SDS011;36320;48.860;2.380;2023-05-10T03:46:17;5.80;;;0.90;;
4208;SDS011;36320;48.860;2.380;2023-05-10T03:48:42;6.40;;;0.93;;
4208;SDS011;36320;48.860;2.380;2023-05-10T03:51:08;5.70;;;0.90;;
4208;SDS011;36320;48.860;2.380;2023-05-10T03:53:34;5.93;;;0.90;;
4208;SDS011;36320;48.860;2.380;2023-05-10T03:56:01;6.80;;;1.30;;
4208;SDS011;36320;48.860;2.380;2023-05-10T03:58:26;5.70;;;0.90;;
4208;SDS011;36320;48.860;2.380;2023-05-10T04:00:52;6.00;;;0.90;;
4208;SDS011;36320;48.860;2.380;2023-05-10T04:03:18;6.93;;;1.00;;
4208;SDS011;36320;48.860;2.380;2023-05-10T04:05:43;5.80;;;0.83;;
4208;SDS011;36320;48.860;2.380;2023-05-10T04:08:09;6.20;;;1.00;;
4208;SDS011;36320;48.860;2.380;2023-05-10T04:10:35;6.10;;;1.00;;
4208;SDS011;36320;48.860;2.380;2023-05-10T04:13:01;6.43;;;1.03;;
4208;SDS011;36320;48.860;2.380;2023-05-10T04:15:26;7.38;;;1.13;;
4208;SDS011;36320;48.860;2.380;2023-05-10T04:17:52;5.80;;;0.90;;
4208;SDS011;36320;48.860;2.380;2023-05-10T04:20:18;6.90;;;1.00;;
4208;SDS011;36320;48.860;2.380;2023-05-10T04:22:45;6.10;;;1.00;;
4208;SDS011;36320;48.860;2.380;2023-05-10T04:25:11;6.60;;;1.10;;
4208;SDS011;36320;48.860;2.380;2023-05-10T04:27:37;5.88;;;0.90;;
4208;SDS011;36320;48.860;2.380;2023-05-10T04:30:03;6.00;;;0.90;;
4208;SDS011;36320;48.860;2.380;2023-05-10T04:32:30;7.90;;;1.40;;
4208;SDS011;36320;48.860;2.380;2023-05-10T04:34:58;6.10;;;1.10;;
4208;SDS011;36320;48.860;2.380;2023-05-10T04:37:23;7.90;;;0.90;;
4208;SDS011;36320;48.860;2.380;2023-05-10T04:39:49;6.10;;;1.10;;
4208;SDS011;36320;48.860;2.380;2023-05-10T04:42:16;5.70;;;0.90;;
4208;SDS011;36320;48.860;2.380;2023-05-10T04:44:42;6.60;;;1.03;;
4208;SDS011;36320;48.860;2.380;2023-05-10T04:47:09;5.90;;;1.00;;
4208;SDS011;36320;48.860;2.380;2023-05-10T04:49:34;5.60;;;0.90;;
4208;SDS011;36320;48.860;2.380;2023-05-10T04:52:00;6.40;;;1.10;;
4208;SDS011;36320;48.860;2.380;2023-05-10T04:54:26;7.10;;;1.00;;
4208;SDS011;36320;48.860;2.380;2023-05-10T04:56:51;6.50;;;1.10;;
4208;SDS011;36320;48.860;2.380;2023-05-10T04:59:18;7.70;;;1.50;;
4208;SDS011;36320;48.860;2.380;2023-05-10T05:01:45;5.90;;;1.10;;
4208;SDS011;36320;48.860;2.380;2023-05-10T05:04:12;7.15;;;1.50;;
4208;SDS011;36320;48.860;2.380;2023-05-10T05:06:40;5.80;;;1.10;;
4208;SDS011;36320;48.860;2.380;2023-05-10T05:09:05;5.70;;;0.97;;
4208;SDS011;36320;48.860;2.380;2023-05-10T05:11:31;8.70;;;1.10;;
4208;SDS011;36320;48.860;2.380;2023-05-10T05:13:58;6.63;;;1.07;;
4208;SDS011;36320;48.860;2.380;2023-05-10T05:16:24;6.22;;;1.10;;
4208;SDS011;36320;48.860;2.380;2023-05-10T05:18:50;6.20;;;1.10;;
4208;SDS011;36320;48.860;2.380;2023-05-10T05:21:16;6.55;;;1.48;;
4208;SDS011;36320;48.860;2.380;2023-05-10T05:23:43;6.07;;;1.30;;
4208;SDS011;36320;48.860;2.380;2023-05-10T05:26:11;5.80;;;1.00;;
4208;SDS011;36320;48.860;2.380;2023-05-10T05:28:41;6.60;;;1.13;;
4208;SDS011;36320;48.860;2.380;2023-05-10T05:31:07;6.25;;;1.10;;
4208;SDS011;36320;48.860;2.380;2023-05-10T05:33:33;7.40;;;1.10;;
4208;SDS011;36320;48.860;2.380;2023-05-10T05:36:03;6.00;;;1.00;;
4208;SDS011;36320;48.860;2.380;2023-05-10T05:38:29;6.80;;;1.05;;
4208;SDS011;36320;48.860;2.380;2023-05-10T05:40:55;6.40;;;1.10;;
4208;SDS011;36320;48.860;2.380;2023-05-10T05:43:21;8.00;;;1.10;;
4208;SDS011;36320;48.860;2.380;2023-05-10T05:45:51;6.63;;;1.17;;
4208;SDS011;36320;48.860;2.380;2023-05-10T05:48:23;8.25;;;1.10;;
4208;SDS011;36320;48.860;2.380;2023-05-10T05:50:49;5.88;;;1.00;;
4208;SDS011;36320;48.860;2.380;2023-05-10T05:53:15;6.20;;;1.20;;
4208;SDS011;36320;48.860;2.380;2023-05-10T05:55:45;6.10;;;1.00;;
4208;SDS011;36320;48.860;2.380;2023-05-10T05:58:16;8.90;;;1.50;;
4208;SDS011;36320;48.860;2.380;2023-05-10T06:00:43;7.40;;;1.00;;
4208;SDS011;36320;48.860;2.380;2023-05-10T06:03:09;9.30;;;1.80;;
4208;SDS011;36320;48.860;2.380;2023-05-10T06:05:35;6.32;;;1.20;;
4208;SDS011;36320;48.860;2.380;2023-05-10T06:08:01;14.00;;;1.40;;
4208;SDS011;36320;48.860;2.380;2023-05-10T06:10:26;8.20;;;1.30;;
4208;SDS011;36320;48.860;2.380;2023-05-10T06:12:52;10.32;;;1.70;;
4208;SDS011;36320;48.860;2.380;2023-05-10T06:15:19;6.20;;;1.17;;
4208;SDS011;36320;48.860;2.380;2023-05-10T06:17:48;7.60;;;1.20;;
4208;SDS011;36320;48.860;2.380;2023-05-10T06:20:17;9.43;;;1.20;;
4208;SDS011;36320;48.860;2.380;2023-05-10T06:22:43;10.20;;;2.10;;
4208;SDS011;36320;48.860;2.380;2023-05-10T06:25:10;6.47;;;1.20;;
4208;SDS011;36320;48.860;2.380;2023-05-10T06:27:39;8.70;;;1.30;;
4208;SDS011;36320;48.860;2.380;2023-05-10T06:30:05;6.80;;;1.33;;
4208;SDS011;36320;48.860;2.380;2023-05-10T06:32:32;7.50;;;1.30;;
4208;SDS011;36320;48.860;2.380;2023-05-10T06:35:02;6.00;;;1.00;;
4208;SDS011;36320;48.860;2.380;2023-05-10T06:37:29;9.60;;;2.45;;
4208;SDS011;36320;48.860;2.380;2023-05-10T06:39:55;8.98;;;1.50;;
4208;SDS011;36320;48.860;2.380;2023-05-10T06:42:41;9.30;;;1.80;;
4208;SDS011;36320;48.860;2.380;2023-05-10T06:45:07;10.43;;;1.25;;
4208;SDS011;36320;48.860;2.380;2023-05-10T06:47:34;5.90;;;1.10;;
4208;SDS011;36320;48.860;2.380;2023-05-10T06:49:59;7.70;;;1.40;;
4208;SDS011;36320;48.860;2.380;2023-05-10T06:52:27;6.90;;;1.50;;
4208;SDS011;36320;48.860;2.380;2023-05-10T06:54:54;6.50;;;1.20;;
4208;SDS011;36320;48.860;2.380;2023-05-10T06:57:19;7.10;;;1.20;;
4208;SDS011;36320;48.860;2.380;2023-05-10T06:59:51;7.55;;;1.75;;
4208;SDS011;36320;48.860;2.380;2023-05-10T07:02:17;6.70;;;1.40;;
4208;SDS011;36320;48.860;2.380;2023-05-10T07:04:43;7.00;;;1.20;;
4208;SDS011;36320;48.860;2.380;2023-05-10T07:07:09;6.80;;;1.40;;
4208;SDS011;36320;48.860;2.380;2023-05-10T07:09:36;7.53;;;1.20;;
4208;SDS011;36320;48.860;2.380;2023-05-10T07:12:02;6.72;;;1.45;;
4208;SDS011;36320;48.860;2.380;2023-05-10T07:14:28;6.85;;;1.30;;
4208;SDS011;36320;48.860;2.380;2023-05-10T07:16:54;8.93;;;1.52;;
4208;SDS011;36320;48.860;2.380;2023-05-10T07:19:21;6.10;;;1.20;;
4208;SDS011;36320;48.860;2.380;2023-05-10T07:21:47;8.20;;;1.70;;
4208;SDS011;36320;48.860;2.380;2023-05-10T07:24:13;8.77;;;2.13;;
4208;SDS011;36320;48.860;2.380;2023-05-10T07:26:38;6.90;;;1.20;;
4208;SDS011;36320;48.860;2.380;2023-05-10T07:29:05;7.05;;;1.48;;
4208;SDS011;36320;48.860;2.380;2023-05-10T07:31:32;6.45;;;1.40;;
4208;SDS011;36320;48.860;2.380;2023-05-10T07:34:00;6.50;;;1.30;;
4208;SDS011;36320;48.860;2.380;2023-05-10T07:36:25;10.00;;;1.37;;
4208;SDS011;36320;48.860;2.380;2023-05-10T07:38:52;7.68;;;1.60;;
4208;SDS011;36320;48.860;2.380;2023-05-10T07:41:19;6.63;;;1.30;;
4208;SDS011;36320;48.860;2.380;2023-05-10T07:43:47;6.90;;;1.30;;
4208;SDS011;36320;48.860;2.380;2023-05-10T07:46:14;6.20;;;1.23;;
4208;SDS011;36320;48.860;2.380;2023-05-10T07:48:40;12.88;;;1.30;;
4208;SDS011;36320;48.860;2.380;2023-05-10T07:51:06;7.15;;;1.40;;
4208;SDS011;36320;48.860;2.380;2023-05-10T07:53:34;6.68;;;1.35;;
4208;SDS011;36320;48.860;2.380;2023-05-10T07:56:19;7.70;;;1.10;;
4208;SDS011;36320;48.860;2.380;2023-05-10T07:58:46;7.80;;;1.15;;
4208;SDS011;36320;48.860;2.380;2023-05-10T08:01:12;6.95;;;1.38;;
4208;SDS011;36320;48.860;2.380;2023-05-10T08:03:37;6.40;;;1.30;;
4208;SDS011;36320;48.860;2.380;2023-05-10T08:06:03;11.50;;;1.90;;
4208;SDS011;36320;48.860;2.380;2023-05-10T08:08:29;6.60;;;1.23;;
4208;SDS011;36320;48.860;2.380;2023-05-10T08:10:55;6.70;;;1.20;;
4208;SDS011;36320;48.860;2.380;2023-05-10T08:13:23;9.20;;;1.10;;
4208;SDS011;36320;48.860;2.380;2023-05-10T08:15:49;13.07;;;1.67;;
4208;SDS011;36320;48.860;2.380;2023-05-10T08:18:17;8.10;;;1.48;;
4208;SDS011;36320;48.860;2.380;2023-05-10T08:20:46;5.90;;;1.20;;
4208;SDS011;36320;48.860;2.380;2023-05-10T08:23:12;7.05;;;1.60;;
4208;SDS011;36320;48.860;2.380;2023-05-10T08:25:38;7.07;;;1.70;;
4208;SDS011;36320;48.860;2.380;2023-05-10T08:28:04;9.80;;;1.60;;
4208;SDS011;36320;48.860;2.380;2023-05-10T08:30:31;12.90;;;1.90;;
4208;SDS011;36320;48.860;2.380;2023-05-10T08:32:57;7.38;;;1.40;;
4208;SDS011;36320;48.860;2.380;2023-05-10T08:35:23;7.53;;;1.50;;
4208;SDS011;36320;48.860;2.380;2023-05-10T08:37:49;6.50;;;1.70;;
4208;SDS011;36320;48.860;2.380;2023-05-10T08:40:15;8.80;;;1.85;;
4208;SDS011;36320;48.860;2.380;2023-05-10T08:42:48;6.45;;;1.40;;
4208;SDS011;36320;48.860;2.380;2023-05-10T08:45:22;7.38;;;1.50;;
4208;SDS011;36320;48.860;2.380;2023-05-10T08:47:49;9.50;;;1.85;;
4208;SDS011;36320;48.860;2.380;2023-05-10T08:50:17;9.68;;;1.58;;
4208;SDS011;36320;48.860;2.380;2023-05-10T08:52:46;7.82;;;1.77;;
4208;SDS011;36320;48.860;2.380;2023-05-10T08:55:16;12.88;;;1.90;;
4208;SDS011;36320;48.860;2.380;2023-05-10T08:57:44;9.32;;;1.90;;
4208;SDS011;36320;48.860;2.380;2023-05-10T09:00:13;8.30;;;1.40;;
4208;SDS011;36320;48.860;2.380;2023-05-10T09:02:39;9.68;;;2.20;;
4208;SDS011;36320;48.860;2.380;2023-05-10T09:05:07;7.33;;;1.80;;
4208;SDS011;36320;48.860;2.380;2023-05-10T09:07:33;9.45;;;1.95;;
4208;SDS011;36320;48.860;2.380;2023-05-10T09:10:00;10.02;;;2.20;;
4208;SDS011;36320;48.860;2.380;2023-05-10T09:12:26;10.77;;;1.90;;
4208;SDS011;36320;48.860;2.380;2023-05-10T09:14:52;9.55;;;2.00;;
4208;SDS011;36320;48.860;2.380;2023-05-10T09:17:23;9.07;;;1.90;;
4208;SDS011;36320;48.860;2.380;2023-05-10T09:19:56;10.18;;;2.20;;
4208;SDS011;36320;48.860;2.380;2023-05-10T09:22:23;10.82;;;2.15;;
4208;SDS011;36320;48.860;2.380;2023-05-10T09:27:38;9.63;;;1.70;;
4208;SDS011;36320;48.860;2.380;2023-05-10T09:30:05;11.23;;;1.90;;
4208;SDS011;36320;48.860;2.380;2023-05-10T09:32:36;9.88;;;2.40;;
4208;SDS011;36320;48.860;2.380;2023-05-10T09:35:21;11.52;;;2.10;;
4208;SDS011;36320;48.860;2.380;2023-05-10T09:37:55;12.38;;;2.97;;
4208;SDS011;36320;48.860;2.380;2023-05-10T09:40:25;9.90;;;2.20;;
4208;SDS011;36320;48.860;2.380;2023-05-10T09:45:31;9.45;;;2.15;;
4208;SDS011;36320;48.860;2.380;2023-05-10T09:47:57;10.95;;;2.10;;
4208;SDS011;36320;48.860;2.380;2023-05-10T09:50:24;9.55;;;2.55;;
4208;SDS011;36320;48.860;2.380;2023-05-10T09:52:54;9.88;;;1.70;;
4208;SDS011;36320;48.860;2.380;2023-05-10T09:55:40;11.93;;;2.40;;
4208;SDS011;36320;48.860;2.380;2023-05-10T09:58:11;17.10;;;2.88;;
4208;SDS011;36320;48.860;2.380;2023-05-10T10:00:39;13.93;;;2.60;;
4208;SDS011;36320;48.860;2.380;2023-05-10T10:03:06;11.70;;;2.10;;
4208;SDS011;36320;48.860;2.380;2023-05-10T10:05:37;10.77;;;1.98;;
4208;SDS011;36320;48.860;2.380;2023-05-10T10:08:07;17.60;;;2.10;;
4208;SDS011;36320;48.860;2.380;2023-05-10T10:10:33;9.07;;;1.90;;
4208;SDS011;36320;48.860;2.380;2023-05-10T10:12:59;20.35;;;2.60;;
4208;SDS011;36320;48.860;2.380;2023-05-10T10:15:26;10.18;;;1.92;;
4208;SDS011;36320;48.860;2.380;2023-05-10T10:17:52;13.57;;;2.67;;
4208;SDS011;36320;48.860;2.380;2023-05-10T10:20:19;16.70;;;2.55;;
4208;SDS011;36320;48.860;2.380;2023-05-10T10:22:46;9.85;;;1.90;;
4208;SDS011;36320;48.860;2.380;2023-05-10T10:25:13;17.10;;;2.47;;
4208;SDS011;36320;48.860;2.380;2023-05-10T10:36:00;11.60;;;2.10;;
4208;SDS011;36320;48.860;2.380;2023-05-10T10:38:38;15.27;;;2.75;;
4208;SDS011;36320;48.860;2.380;2023-05-10T10:41:34;14.30;;;2.20;;
4208;SDS011;36320;48.860;2.380;2023-05-10T10:55:02;14.18;;;2.40;;
4208;SDS011;36320;48.860;2.380;2023-05-10T11:00:19;13.98;;;2.35;;
4208;SDS011;36320;48.860;2.380;2023-05-10T11:03:10;10.60;;;2.58;;
4208;SDS011;36320;48.860;2.380;2023-05-10T11:05:40;9.95;;;2.38;;
4208;SDS011;36320;48.860;2.380;2023-05-10T11:08:28;10.43;;;2.58;;
4208;SDS011;36320;48.860;2.380;2023-05-10T11:13:33;10.95;;;2.30;;
4208;SDS011;36320;48.860;2.380;2023-05-10T11:16:18;7.28;;;1.75;;
4208;SDS011;36320;48.860;2.380;2023-05-10T11:19:01;15.60;;;2.10;;
4208;SDS011;36320;48.860;2.380;2023-05-10T11:21:45;10.02;;;2.00;;
4208;SDS011;36320;48.860;2.380;2023-05-10T11:24:13;17.25;;;2.42;;
4208;SDS011;36320;48.860;2.380;2023-05-10T11:26:43;8.60;;;1.80;;
4208;SDS011;36320;48.860;2.380;2023-05-10T11:29:12;11.13;;;2.35;;
4208;SDS011;36320;48.860;2.380;2023-05-10T11:31:44;10.20;;;2.30;;
4208;SDS011;36320;48.860;2.380;2023-05-10T11:34:11;11.10;;;2.72;;
4208;SDS011;36320;48.860;2.380;2023-05-10T11:36:59;10.83;;;2.37;;
4208;SDS011;36320;48.860;2.380;2023-05-10T11:39:32;10.70;;;1.90;;
4208;SDS011;36320;48.860;2.380;2023-05-10T11:42:19;12.52;;;1.80;;
4208;SDS011;36320;48.860;2.380;2023-05-10T11:44:48;13.93;;;2.30;;
4208;SDS011;36320;48.860;2.380;2023-05-10T11:47:25;9.40;;;1.80;;
4208;SDS011;36320;48.860;2.380;2023-05-10T11:49:54;10.95;;;2.05;;
4208;SDS011;36320;48.860;2.380;2023-05-10T11:52:26;9.50;;;2.05;;
4208;SDS011;36320;48.860;2.380;2023-05-10T11:54:54;10.55;;;2.30;;
4208;SDS011;36320;48.860;2.380;2023-05-10T11:57:20;15.32;;;2.20;;
4208;SDS011;36320;48.860;2.380;2023-05-10T11:59:54;8.90;;;1.90;;
4208;SDS011;36320;48.860;2.380;2023-05-10T12:02:21;10.25;;;2.40;;
4208;SDS011;36320;48.860;2.380;2023-05-10T12:04:48;11.57;;;2.00;;
4208;SDS011;36320;48.860;2.380;2023-05-10T12:07:15;10.23;;;1.70;;
4208;SDS011;36320;48.860;2.380;2023-05-10T12:09:48;13.15;;;2.58;;
4208;SDS011;36320;48.860;2.380;2023-05-10T12:12:51;11.18;;;2.67;;
4208;SDS011;36320;48.860;2.380;2023-05-10T12:17:44;17.13;;;2.30;;
4208;SDS011;36320;48.860;2.380;2023-05-10T12:20:18;8.13;;;2.00;;
4208;SDS011;36320;48.860;2.380;2023-05-10T12:22:52;9.18;;;1.80;;
4208;SDS011;36320;48.860;2.380;2023-05-10T12:25:20;8.52;;;1.67;;
4208;SDS011;36320;48.860;2.380;2023-05-10T12:27:51;8.30;;;1.60;;
4208;SDS011;36320;48.860;2.380;2023-05-10T12:32:48;9.85;;;2.15;;
4208;SDS011;36320;48.860;2.380;2023-05-10T12:35:14;10.45;;;2.17;;
4208;SDS011;36320;48.860;2.380;2023-05-10T12:37:41;9.40;;;2.20;;
4208;SDS011;36320;48.860;2.380;2023-05-10T12:40:08;11.32;;;1.70;;
4208;SDS011;36320;48.860;2.380;2023-05-10T12:42:37;8.18;;;1.52;;
4208;SDS011;36320;48.860;2.380;2023-05-10T12:45:06;9.90;;;1.90;;
4208;SDS011;36320;48.860;2.380;2023-05-10T12:47:33;10.02;;;1.80;;
4208;SDS011;36320;48.860;2.380;2023-05-10T12:49:59;8.95;;;1.60;;
4208;SDS011;36320;48.860;2.380;2023-05-10T12:52:26;12.40;;;2.10;;
4208;SDS011;36320;48.860;2.380;2023-05-10T12:54:52;13.43;;;2.30;;
4208;SDS011;36320;48.860;2.380;2023-05-10T12:57:18;10.13;;;2.08;;
4208;SDS011;36320;48.860;2.380;2023-05-10T12:59:47;11.70;;;1.90;;
4208;SDS011;36320;48.860;2.380;2023-05-10T13:02:14;10.38;;;1.95;;
4208;SDS011;36320;48.860;2.380;2023-05-10T13:04:42;12.25;;;2.20;;
4208;SDS011;36320;48.860;2.380;2023-05-10T13:07:09;9.38;;;2.25;;
4208;SDS011;36320;48.860;2.380;2023-05-10T13:09:35;9.65;;;2.47;;
4208;SDS011;36320;48.860;2.380;2023-05-10T13:12:01;10.20;;;1.92;;
4208;SDS011;36320;48.860;2.380;2023-05-10T13:14:27;9.20;;;2.28;;
4208;SDS011;36320;48.860;2.380;2023-05-10T13:16:54;13.20;;;2.50;;
4208;SDS011;36320;48.860;2.380;2023-05-10T13:19:22;8.60;;;1.70;;
4208;SDS011;36320;48.860;2.380;2023-05-10T13:21:48;9.67;;;1.80;;
4208;SDS011;36320;48.860;2.380;2023-05-10T13:24:14;9.70;;;1.73;;
4208;SDS011;36320;48.860;2.380;2023-05-10T13:26:40;14.77;;;2.53;;
4208;SDS011;36320;48.860;2.380;2023-05-10T13:29:06;8.63;;;2.20;;
4208;SDS011;36320;48.860;2.380;2023-05-10T13:31:33;9.27;;;2.00;;
4208;SDS011;36320;48.860;2.380;2023-05-10T13:33:59;8.77;;;1.95;;
4208;SDS011;36320;48.860;2.380;2023-05-10T13:36:28;12.75;;;2.10;;
4208;SDS011;36320;48.860;2.380;2023-05-10T13:38:53;12.05;;;2.17;;
4208;SDS011;36320;48.860;2.380;2023-05-10T13:41:19;10.50;;;2.33;;
4208;SDS011;36320;48.860;2.380;2023-05-10T13:43:45;10.57;;;2.00;;
4208;SDS011;36320;48.860;2.380;2023-05-10T13:46:13;10.30;;;1.80;;
4208;SDS011;36320;48.860;2.380;2023-05-10T13:48:40;7.75;;;1.77;;
4208;SDS011;36320;48.860;2.380;2023-05-10T13:51:06;10.60;;;2.00;;
4208;SDS011;36320;48.860;2.380;2023-05-10T13:53:32;10.77;;;1.80;;
4208;SDS011;36320;48.860;2.380;2023-05-10T13:55:58;10.97;;;2.40;;
4208;SDS011;36320;48.860;2.380;2023-05-10T13:58:27;12.13;;;2.20;;
4208;SDS011;36320;48.860;2.380;2023-05-10T14:00:52;19.77;;;3.30;;
4208;SDS011;36320;48.860;2.380;2023-05-10T14:03:18;10.10;;;1.90;;
4208;SDS011;36320;48.860;2.380;2023-05-10T14:05:44;10.75;;;1.80;;
4208;SDS011;36320;48.860;2.380;2023-05-10T14:08:10;16.45;;;2.00;;
4208;SDS011;36320;48.860;2.380;2023-05-10T14:10:38;11.68;;;1.77;;
4208;SDS011;36320;48.860;2.380;2023-05-10T14:13:04;8.40;;;1.60;;
4208;SDS011;36320;48.860;2.380;2023-05-10T14:15:30;15.77;;;2.07;;
4208;SDS011;36320;48.860;2.380;2023-05-10T14:17:57;12.50;;;1.90;;
4208;SDS011;36320;48.860;2.380;2023-05-10T14:20:23;11.50;;;1.80;;
4208;SDS011;36320;48.860;2.380;2023-05-10T14:22:49;7.90;;;1.40;;
4208;SDS011;36320;48.860;2.380;2023-05-10T14:25:15;8.10;;;1.50;;
4208;SDS011;36320;48.860;2.380;2023-05-10T14:27:41;13.13;;;2.27;;
4208;SDS011;36320;48.860;2.380;2023-05-10T14:30:08;8.10;;;1.60;;
4208;SDS011;36320;48.860;2.380;2023-05-10T14:32:34;10.65;;;1.65;;
4208;SDS011;36320;48.860;2.380;2023-05-10T14:35:01;8.55;;;1.90;;
4208;SDS011;36320;48.860;2.380;2023-05-10T14:37:27;7.57;;;1.90;;
4208;SDS011;36320;48.860;2.380;2023-05-10T14:39:53;10.13;;;1.70;;
4208;SDS011;36320;48.860;2.380;2023-05-10T14:42:23;9.40;;;1.83;;
4208;SDS011;36320;48.860;2.380;2023-05-10T14:44:49;8.20;;;1.70;;
4208;SDS011;36320;48.860;2.380;2023-05-10T14:47:15;12.90;;;2.47;;
4208;SDS011;36320;48.860;2.380;2023-05-10T14:49:40;11.30;;;2.60;;
4208;SDS011;36320;48.860;2.380;2023-05-10T14:52:07;11.35;;;2.30;;
4208;SDS011;36320;48.860;2.380;2023-05-10T14:54:33;11.57;;;1.48;;
4208;SDS011;36320;48.860;2.380;2023-05-10T14:56:59;11.73;;;1.75;;
4208;SDS011;36320;48.860;2.380;2023-05-10T14:59:25;10.77;;;2.20;;
4208;SDS011;36320;48.860;2.380;2023-05-10T15:01:51;14.80;;;2.10;;
4208;SDS011;36320;48.860;2.380;2023-05-10T15:04:17;12.88;;;2.33;;
4208;SDS011;36320;48.860;2.380;2023-05-10T15:06:43;19.67;;;1.90;;
4208;SDS011;36320;48.860;2.380;2023-05-10T15:09:12;9.80;;;1.55;;
4208;SDS011;36320;48.860;2.380;2023-05-10T15:11:38;15.00;;;2.80;;
4208;SDS011;36320;48.860;2.380;2023-05-10T15:14:04;10.25;;;1.60;;
4208;SDS011;36320;48.860;2.380;2023-05-10T15:16:29;20.27;;;2.47;;
4208;SDS011;36320;48.860;2.380;2023-05-10T15:18:55;23.60;;;2.63;;
4208;SDS011;36320;48.860;2.380;2023-05-10T15:21:22;12.00;;;2.00;;
4208;SDS011;36320;48.860;2.380;2023-05-10T15:23:48;8.37;;;1.50;;
4208;SDS011;36320;48.860;2.380;2023-05-10T15:26:15;9.27;;;1.37;;
4208;SDS011;36320;48.860;2.380;2023-05-10T15:28:41;7.40;;;1.20;;
4208;SDS011;36320;48.860;2.380;2023-05-10T15:31:08;12.68;;;1.58;;
4208;SDS011;36320;48.860;2.380;2023-05-10T15:33:36;8.15;;;2.00;;
4208;SDS011;36320;48.860;2.380;2023-05-10T15:36:03;6.70;;;1.10;;
4208;SDS011;36320;48.860;2.380;2023-05-10T15:38:32;7.90;;;1.55;;
4208;SDS011;36320;48.860;2.380;2023-05-10T15:40:58;8.93;;;1.80;;
4208;SDS011;36320;48.860;2.380;2023-05-10T15:43:23;7.70;;;1.90;;
4208;SDS011;36320;48.860;2.380;2023-05-10T15:45:51;11.10;;;1.40;;
4208;SDS011;36320;48.860;2.380;2023-05-10T15:48:16;8.98;;;1.80;;
4208;SDS011;36320;48.860;2.380;2023-05-10T15:50:42;6.97;;;1.27;;
4208;SDS011;36320;48.860;2.380;2023-05-10T15:53:08;6.90;;;1.40;;
4208;SDS011;36320;48.860;2.380;2023-05-10T15:55:34;10.30;;;1.40;;
4208;SDS011;36320;48.860;2.380;2023-05-10T15:58:01;9.90;;;1.70;;